createdAt,value
2019-06-26T00:00:00.829Z,74.48
2019-06-26T00:01:01.151Z,74.88
2019-06-26T00:02:00.603Z,74.98
2019-06-26T00:03:00.607Z,74.68
2019-06-26T00:04:00.565Z,74.78
2019-06-26T00:05:00.560Z,74.98
2019-06-26T00:06:00.574Z,75.41
2019-06-26T00:07:00.536Z,75.31
2019-06-26T00:08:00.514Z,75.27
2019-06-26T00:09:00.511Z,75.21
2019-06-26T00:10:00.498Z,75.38
2019-06-26T00:11:00.518Z,75.51
2019-06-26T00:12:00.492Z,75.41
2019-06-26T00:13:00.474Z,75.51
2019-06-26T00:14:00.472Z,75.41
2019-06-26T00:15:00.443Z,75.01
2019-06-26T00:16:00.476Z,75.31
2019-06-26T00:17:00.422Z,76.01
2019-06-26T00:18:00.412Z,75.01
2019-06-26T00:19:00.443Z,75.31
2019-06-26T00:20:00.426Z,75.01
2019-06-26T00:21:00.420Z,75.51
2019-06-26T00:22:00.370Z,75.74
2019-06-26T00:23:00.362Z,75.65
2019-06-26T00:24:00.416Z,75.15
2019-06-26T00:25:00.342Z,75.35
2019-06-26T00:26:00.359Z,75.74
2019-06-26T00:27:00.306Z,75.55
2019-06-26T00:28:00.312Z,75.45
2019-06-26T00:29:00.289Z,75.45
2019-06-26T00:30:00.284Z,75.45
2019-06-26T00:31:00.301Z,76.08
2019-06-26T00:32:00.270Z,75.45
2019-06-26T00:33:00.242Z,76.08
2019-06-26T00:34:00.236Z,76.28
2019-06-26T00:35:00.234Z,76.14
2019-06-26T00:36:00.234Z,76.08
2019-06-26T00:37:00.216Z,75.84
2019-06-26T00:38:00.186Z,76.18
2019-06-26T00:39:00.176Z,75.78
2019-06-26T00:40:00.186Z,76.68
2019-06-26T00:41:00.174Z,76.28
2019-06-26T00:42:00.150Z,76.28
2019-06-26T00:43:00.147Z,76.78
2019-06-26T00:44:00.246Z,76.18
2019-06-26T00:45:00.164Z,76.08
2019-06-26T00:46:00.137Z,76.48
2019-06-26T00:47:00.108Z,76.28
2019-06-26T00:48:00.129Z,76.72
2019-06-26T00:49:00.093Z,76.42
2019-06-26T00:50:00.057Z,76.18
2019-06-26T00:51:00.073Z,76.42
2019-06-26T00:52:00.032Z,76.42
2019-06-26T00:53:00.018Z,76.57
2019-06-26T00:54:00.020Z,76.51
2019-06-26T00:55:00.039Z,76.21
2019-06-26T00:55:59.993Z,76.61
2019-06-26T00:57:00.017Z,76.42
2019-06-26T00:57:59.969Z,76.42
2019-06-26T00:59:00.014Z,77.21
2019-06-26T00:59:59.947Z,76.91
2019-06-26T01:00:59.937Z,76.81
2019-06-26T01:01:59.959Z,77.01
2019-06-26T01:02:59.975Z,76.91
2019-06-26T01:03:59.920Z,77.21
2019-06-26T01:04:59.914Z,77.11
2019-06-26T01:05:59.884Z,77.11
2019-06-26T01:06:59.902Z,76.91
2019-06-26T01:07:59.864Z,76.21
2019-06-26T01:08:59.838Z,77.01
2019-06-26T01:09:59.891Z,77.21
2019-06-26T01:10:59.822Z,77.11
2019-06-26T01:11:59.826Z,76.81
2019-06-26T01:12:59.835Z,77.11
2019-06-26T01:13:59.787Z,77.05
2019-06-26T01:14:59.781Z,77.21
2019-06-26T01:15:59.790Z,76.95
2019-06-26T01:16:59.782Z,77.15
2019-06-26T01:17:59.744Z,77.25
2019-06-26T01:18:59.750Z,77.15
2019-06-26T01:19:59.739Z,77.45
2019-06-26T01:20:59.711Z,77.34
2019-06-26T01:21:59.727Z,77.55
2019-06-26T01:22:59.689Z,77.05
2019-06-26T01:23:59.722Z,77.15
2019-06-26T01:24:59.672Z,77.25
2019-06-26T01:25:59.666Z,77.64
2019-06-26T01:26:59.669Z,77.34
2019-06-26T01:27:59.630Z,76.95
2019-06-26T01:28:59.625Z,76.85
2019-06-26T01:29:59.608Z,77.05
2019-06-26T01:30:59.602Z,77.55
2019-06-26T01:31:59.618Z,76.85
2019-06-26T01:32:59.573Z,77.75
2019-06-26T01:33:59.565Z,77.84
2019-06-26T01:34:59.557Z,77.75
2019-06-26T01:35:59.555Z,78.34
2019-06-26T01:36:59.548Z,78.08
2019-06-26T01:37:59.523Z,78.08
2019-06-26T01:38:59.518Z,77.98
2019-06-26T01:39:59.503Z,77.98
2019-06-26T01:40:59.489Z,77.68
2019-06-26T01:41:59.500Z,78.28
2019-06-26T01:42:59.491Z,78.38
2019-06-26T01:44:13.734Z,78.28
2019-06-26T01:45:00.448Z,78.28
2019-06-26T01:45:59.439Z,78.78
2019-06-26T01:46:59.453Z,78.78
2019-06-26T01:47:59.423Z,78.78
2019-06-26T01:48:59.474Z,78.88
2019-06-26T01:49:59.391Z,78.88
2019-06-26T01:50:59.383Z,78.78
2019-06-26T01:51:59.401Z,78.88
2019-06-26T01:52:59.366Z,78.67
2019-06-26T01:53:59.360Z,78.67
2019-06-26T01:54:59.344Z,78.88
2019-06-26T01:55:59.350Z,78.28
2019-06-26T01:56:59.375Z,79.11
2019-06-26T01:57:59.307Z,78.72
2019-06-26T01:58:59.299Z,79.71
2019-06-26T01:59:59.320Z,79.51
2019-06-26T02:00:59.284Z,79.51
2019-06-26T02:01:59.283Z,79.41
2019-06-26T02:02:59.270Z,79.61
2019-06-26T02:03:59.243Z,80.30
2019-06-26T02:04:59.276Z,79.94
2019-06-26T02:05:59.223Z,79.85
2019-06-26T02:06:59.251Z,80.24
2019-06-26T02:07:59.215Z,80.11
2019-06-26T02:08:59.192Z,79.94
2019-06-26T02:09:59.193Z,79.85
2019-06-26T02:10:59.188Z,80.15
2019-06-26T02:12:00.518Z,79.94
2019-06-26T02:12:59.152Z,79.55
2019-06-26T02:13:59.144Z,79.94
2019-06-26T02:14:59.134Z,80.15
2019-06-26T02:15:59.157Z,79.75
2019-06-26T02:16:59.147Z,79.94
2019-06-26T02:17:59.097Z,80.05
2019-06-26T02:18:59.086Z,79.85
2019-06-26T02:19:59.093Z,80.94
2019-06-26T02:20:59.096Z,80.84
2019-06-26T02:21:59.974Z,80.74
2019-06-26T02:22:59.048Z,80.65
2019-06-26T02:23:59.033Z,80.74
2019-06-26T02:24:59.021Z,80.94
2019-06-26T02:25:59.028Z,80.84
2019-06-26T02:26:59.113Z,80.44
2019-06-26T02:27:58.992Z,80.54
2019-06-26T02:28:58.982Z,81.18
2019-06-26T02:29:58.973Z,80.88
2019-06-26T02:30:58.969Z,80.94
2019-06-26T02:31:58.970Z,80.98
2019-06-26T02:32:58.936Z,81.08
2019-06-26T02:33:58.926Z,80.94
2019-06-26T02:34:58.946Z,81.38
2019-06-26T02:35:58.908Z,81.48
2019-06-26T02:36:58.935Z,81.88
2019-06-26T02:37:58.924Z,82.18
2019-06-26T02:38:58.899Z,82.18
2019-06-26T02:39:58.878Z,81.88
2019-06-26T02:40:58.862Z,81.88
2019-06-26T02:41:58.919Z,81.68
2019-06-26T02:42:58.829Z,82.07
2019-06-26T02:43:58.828Z,81.98
2019-06-26T02:44:58.812Z,82.67
2019-06-26T02:45:58.813Z,81.92
2019-06-26T02:47:17.685Z,82.32
2019-06-26T02:47:59.781Z,81.82
2019-06-26T02:48:58.772Z,82.71
2019-06-26T02:49:58.770Z,82.42
2019-06-26T02:50:58.753Z,82.32
2019-06-26T02:51:58.760Z,82.21
2019-06-26T02:52:58.743Z,82.32
2019-06-26T02:53:58.727Z,82.02
2019-06-26T02:54:58.758Z,82.71
2019-06-26T02:55:58.687Z,82.71
2019-06-26T02:56:59.474Z,82.51
2019-06-26T02:57:58.708Z,82.51
2019-06-26T02:58:58.685Z,82.71
2019-06-26T02:59:58.682Z,82.32
2019-06-26T03:00:58.642Z,82.62
2019-06-26T03:01:58.649Z,82.15
2019-06-26T03:02:58.615Z,82.12
2019-06-26T03:03:58.611Z,82.75
2019-06-26T03:04:58.610Z,82.81
2019-06-26T03:05:58.589Z,83.41
2019-06-26T03:06:58.603Z,83.65
2019-06-26T03:07:58.564Z,83.61
2019-06-26T03:08:58.554Z,83.61
2019-06-26T03:09:58.548Z,83.41
2019-06-26T03:10:58.552Z,83.51
2019-06-26T03:11:58.563Z,83.61
2019-06-26T03:12:58.519Z,83.45
2019-06-26T03:13:58.509Z,83.05
2019-06-26T03:15:08.169Z,83.05
2019-06-26T03:15:59.534Z,83.35
2019-06-26T03:16:58.495Z,83.45
2019-06-26T03:17:58.454Z,83.35
2019-06-26T03:18:58.467Z,83.85
2019-06-26T03:19:58.434Z,83.65
2019-06-26T03:20:58.428Z,83.75
2019-06-26T03:21:58.434Z,83.75
2019-06-26T03:22:58.461Z,83.85
2019-06-26T03:23:58.387Z,83.95
2019-06-26T03:24:58.390Z,83.85
2019-06-26T03:25:58.377Z,83.95
2019-06-26T03:26:58.387Z,83.61
2019-06-26T03:27:58.351Z,84.35
2019-06-26T03:28:58.334Z,83.75
2019-06-26T03:29:58.339Z,83.95
2019-06-26T03:30:58.317Z,83.85
2019-06-26T03:31:58.346Z,83.65
2019-06-26T03:32:58.366Z,83.85
2019-06-26T03:33:58.310Z,83.75
2019-06-26T03:34:58.265Z,83.75
2019-06-26T03:35:58.266Z,83.95
2019-06-26T03:36:58.273Z,83.95
2019-06-26T03:37:58.272Z,83.71
2019-06-26T03:38:58.253Z,83.75
2019-06-26T03:39:58.207Z,83.75
2019-06-26T03:40:58.200Z,83.55
2019-06-26T03:41:58.210Z,83.75
2019-06-26T03:42:58.177Z,83.75
2019-06-26T03:43:58.179Z,83.75
2019-06-26T03:44:58.214Z,83.81
2019-06-26T03:45:58.173Z,83.45
2019-06-26T03:46:58.163Z,83.31
2019-06-26T03:47:58.175Z,83.31
2019-06-26T03:48:58.113Z,83.31
2019-06-26T03:49:58.111Z,83.31
2019-06-26T03:50:58.101Z,83.41
2019-06-26T03:51:58.144Z,83.61
2019-06-26T03:52:58.086Z,83.71
2019-06-26T03:53:58.074Z,83.01
2019-06-26T03:54:58.082Z,82.81
2019-06-26T03:55:58.044Z,82.62
2019-06-26T03:56:58.132Z,82.67
2019-06-26T03:57:58.077Z,82.57
2019-06-26T03:58:58.010Z,82.32
2019-06-26T03:59:58.008Z,82.18
2019-06-26T04:00:58.015Z,82.28
2019-06-26T04:01:58.053Z,82.67
2019-06-26T04:02:57.993Z,81.77
2019-06-26T04:03:58.009Z,81.88
2019-06-26T04:04:58.056Z,82.48
2019-06-26T04:05:57.975Z,82.37
2019-06-26T04:06:57.932Z,82.28
2019-06-26T04:07:58.018Z,81.88
2019-06-26T04:08:57.902Z,81.98
2019-06-26T04:09:57.897Z,81.88
2019-06-26T04:10:57.921Z,81.77
2019-06-26T04:11:57.967Z,82.18
2019-06-26T04:12:57.892Z,81.77
2019-06-26T04:13:57.847Z,81.98
2019-06-26T04:14:57.869Z,82.18
2019-06-26T04:15:57.830Z,82.07
2019-06-26T04:16:57.826Z,81.64
2019-06-26T04:17:57.822Z,81.88
2019-06-26T04:18:57.832Z,81.98
2019-06-26T04:19:57.821Z,81.77
2019-06-26T04:20:57.787Z,82.07
2019-06-26T04:21:57.760Z,82.28
2019-06-26T04:22:57.782Z,81.68
2019-06-26T04:23:57.757Z,81.88
2019-06-26T04:24:57.727Z,82.04
2019-06-26T04:25:57.750Z,82.04
2019-06-26T04:26:57.708Z,82.14
2019-06-26T04:27:57.740Z,81.84
2019-06-26T04:28:57.702Z,81.68
2019-06-26T04:29:57.715Z,81.77
2019-06-26T04:30:57.665Z,81.98
2019-06-26T04:31:57.665Z,81.68
2019-06-26T04:32:57.664Z,81.77
2019-06-26T04:33:57.658Z,81.74
2019-06-26T04:34:57.674Z,81.24
2019-06-26T04:35:57.616Z,81.54
2019-06-26T04:36:57.609Z,81.64
2019-06-26T04:37:57.612Z,81.94
2019-06-26T04:38:57.584Z,81.77
2019-06-26T04:39:57.600Z,81.88
2019-06-26T04:40:57.589Z,82.48
2019-06-26T04:41:57.620Z,81.88
2019-06-26T04:42:57.573Z,81.94
2019-06-26T04:43:57.545Z,82.24
2019-06-26T04:44:57.512Z,81.94
2019-06-26T04:45:58.733Z,81.94
2019-06-26T04:46:57.490Z,81.84
2019-06-26T04:47:57.561Z,82.04
2019-06-26T04:48:57.483Z,82.24
2019-06-26T04:49:57.482Z,82.14
2019-06-26T04:50:57.460Z,81.44
2019-06-26T04:51:57.440Z,82.04
2019-06-26T04:52:57.454Z,81.94
2019-06-26T04:53:57.442Z,82.24
2019-06-26T04:54:57.419Z,82.34
2019-06-26T04:55:57.399Z,82.43
2019-06-26T04:56:57.379Z,83.57
2019-06-26T04:57:57.429Z,83.43
2019-06-26T04:58:57.384Z,82.04
2019-06-26T04:59:57.353Z,82.34
2019-06-26T05:00:57.346Z,83.33
2019-06-26T05:01:57.341Z,82.73
2019-06-26T05:02:57.363Z,83.57
2019-06-26T05:03:57.325Z,83.43
2019-06-26T05:04:57.296Z,83.33
2019-06-26T05:05:57.284Z,83.27
2019-06-26T05:06:57.304Z,83.53
2019-06-26T05:07:57.323Z,82.73
2019-06-26T05:08:57.283Z,83.43
2019-06-26T05:09:57.261Z,83.87
2019-06-26T05:10:57.248Z,84.27
2019-06-26T05:11:57.223Z,83.77
2019-06-26T05:12:57.289Z,83.77
2019-06-26T05:13:57.203Z,83.67
2019-06-26T05:14:57.192Z,82.93
2019-06-26T05:16:13.369Z,83.53
2019-06-26T05:16:58.167Z,83.63
2019-06-26T05:17:57.214Z,83.23
2019-06-26T05:18:57.147Z,83.83
2019-06-26T05:19:57.138Z,83.83
2019-06-26T05:20:57.124Z,83.57
2019-06-26T05:21:57.132Z,83.57
2019-06-26T05:22:57.121Z,83.93
2019-06-26T05:23:57.095Z,82.40
2019-06-26T05:24:57.079Z,82.93
2019-06-26T05:25:57.091Z,83.33
2019-06-26T05:26:57.070Z,82.73
2019-06-26T05:27:57.078Z,82.54
2019-06-26T05:28:57.074Z,82.34
2019-06-26T05:29:57.030Z,81.80
2019-06-26T05:30:57.045Z,80.77
2019-06-26T05:31:57.001Z,79.53
2019-06-26T05:32:57.043Z,79.00
2019-06-26T05:33:56.983Z,78.50
2019-06-26T05:34:56.971Z,79.53
2019-06-26T05:35:57.004Z,79.57
2019-06-26T05:36:56.954Z,80.90
2019-06-26T05:37:57.065Z,81.01
2019-06-26T05:38:56.940Z,80.03
2019-06-26T05:39:56.933Z,79.83
2019-06-26T05:40:56.946Z,79.33
2019-06-26T05:41:56.894Z,78.60
2019-06-26T05:42:56.911Z,78.94
2019-06-26T05:43:56.884Z,79.93
2019-06-26T05:44:56.873Z,79.14
2019-06-26T05:45:56.865Z,79.97
2019-06-26T05:46:56.848Z,78.30
2019-06-26T05:47:56.859Z,78.17
2019-06-26T05:48:56.822Z,78.30
2019-06-26T05:49:56.813Z,77.70
2019-06-26T05:50:56.818Z,78.64
2019-06-26T05:51:56.811Z,78.30
2019-06-26T05:52:56.821Z,79.14
2019-06-26T05:53:56.763Z,78.74
2019-06-26T05:54:56.826Z,79.17
2019-06-26T05:55:56.748Z,78.84
2019-06-26T05:56:56.737Z,77.70
2019-06-26T05:57:56.772Z,76.97
2019-06-26T05:58:56.750Z,78.20
2019-06-26T05:59:56.703Z,78.34
2019-06-26T06:00:56.709Z,78.58
2019-06-26T06:01:56.717Z,79.71
2019-06-26T06:02:56.675Z,80.00
2019-06-26T06:03:56.679Z,79.87
2019-06-26T06:04:56.655Z,79.47
2019-06-26T06:05:56.663Z,78.44
2019-06-26T06:06:56.641Z,78.64
2019-06-26T06:07:56.625Z,77.75
2019-06-26T06:08:56.635Z,78.64
2019-06-26T06:09:56.650Z,77.94
2019-06-26T06:10:58.241Z,78.30
2019-06-26T06:11:56.579Z,76.74
2019-06-26T06:12:56.567Z,76.34
2019-06-26T06:13:56.630Z,77.08
2019-06-26T06:14:56.559Z,76.51
2019-06-26T06:15:56.546Z,77.64
2019-06-26T06:16:56.538Z,78.54
2019-06-26T06:17:56.515Z,76.97
2019-06-26T06:18:56.578Z,76.04
2019-06-26T06:19:56.512Z,77.11
2019-06-26T06:20:56.503Z,76.34
2019-06-26T06:21:56.499Z,74.58
2019-06-26T06:22:56.462Z,73.89
2019-06-26T06:23:56.508Z,74.08
2019-06-26T06:24:56.445Z,75.15
2019-06-26T06:25:56.433Z,77.41
2019-06-26T06:26:56.430Z,78.11
2019-06-26T06:27:56.425Z,78.54
2019-06-26T06:28:56.462Z,77.33
2019-06-26T06:29:56.391Z,76.25
2019-06-26T06:30:56.388Z,75.12
2019-06-26T06:31:56.370Z,73.49
2019-06-26T06:32:56.379Z,74.72
2019-06-26T06:33:56.361Z,75.42
2019-06-26T06:34:56.350Z,76.21
2019-06-26T06:35:56.345Z,75.35
2019-06-26T06:36:56.317Z,75.09
2019-06-26T06:37:56.345Z,74.69
2019-06-26T06:38:56.482Z,76.85
2019-06-26T06:39:56.290Z,75.92
2019-06-26T06:40:56.279Z,76.18
2019-06-26T06:41:56.277Z,73.49
2019-06-26T06:42:56.254Z,71.83
2019-06-26T06:43:56.271Z,70.97
2019-06-26T06:44:56.234Z,70.12
2019-06-26T06:45:56.221Z,71.90
2019-06-26T06:47:04.017Z,73.69
2019-06-26T06:47:57.216Z,73.16
2019-06-26T06:48:56.230Z,72.86
2019-06-26T06:49:56.189Z,75.05
2019-06-26T06:50:56.182Z,76.44
2019-06-26T06:51:56.189Z,74.68
2019-06-26T06:52:56.155Z,74.35
2019-06-26T06:53:56.169Z,72.96
2019-06-26T06:54:56.121Z,73.69
2019-06-26T06:55:56.116Z,73.65
2019-06-26T06:56:56.148Z,74.25
2019-06-26T06:57:56.156Z,73.52
2019-06-26T06:58:56.126Z,71.37
2019-06-26T06:59:56.072Z,71.14
2019-06-26T07:00:56.127Z,72.20
2019-06-26T07:01:56.062Z,74.22
2019-06-26T07:02:56.061Z,73.46
2019-06-26T07:03:56.054Z,72.17
2019-06-26T07:04:56.024Z,69.19
2019-06-26T07:05:56.030Z,67.97
2019-06-26T07:06:58.707Z,70.12
2019-06-26T07:07:55.988Z,69.89
2019-06-26T07:08:55.999Z,68.90
2019-06-26T07:09:55.973Z,69.72
2019-06-26T07:10:55.970Z,68.43
2019-06-26T07:11:55.990Z,70.02
2019-06-26T07:12:56.023Z,71.67
2019-06-26T07:13:56.031Z,72.89
2019-06-26T07:14:55.921Z,71.11
2019-06-26T07:15:55.946Z,71.80
2019-06-26T07:16:55.904Z,74.19
2019-06-26T07:17:55.901Z,74.48
2019-06-26T07:18:55.915Z,73.55
2019-06-26T07:19:55.871Z,73.46
2019-06-26T07:20:55.855Z,73.49
2019-06-26T07:21:55.866Z,74.08
2019-06-26T07:22:55.851Z,73.65
2019-06-26T07:23:55.867Z,70.57
2019-06-26T07:24:55.917Z,70.12
2019-06-26T07:25:55.835Z,71.91
2019-06-26T07:26:55.803Z,72.27
2019-06-26T07:27:55.824Z,71.24
2019-06-26T07:28:55.809Z,71.17
2019-06-26T07:29:55.771Z,72.36
2019-06-26T07:30:55.778Z,71.67
2019-06-26T07:31:55.742Z,73.72
2019-06-26T07:32:55.748Z,72.80
2019-06-26T07:33:56.070Z,70.61
2019-06-26T07:34:55.736Z,69.79
2019-06-26T07:35:55.744Z,72.00
2019-06-26T07:36:55.725Z,71.08
2019-06-26T07:37:55.694Z,71.87
2019-06-26T07:38:55.734Z,68.99
2019-06-26T07:40:00.243Z,68.33
2019-06-26T07:40:56.675Z,67.77
2019-06-26T07:41:55.643Z,70.88
2019-06-26T07:42:55.635Z,71.70
2019-06-26T07:43:55.655Z,71.87
2019-06-26T07:44:55.629Z,70.15
2019-06-26T07:45:55.593Z,69.23
2019-06-26T07:46:55.587Z,70.88
2019-06-26T07:47:55.597Z,71.70
2019-06-26T07:48:57.631Z,72.93
2019-06-26T07:49:55.566Z,72.73
2019-06-26T07:50:55.551Z,72.70
2019-06-26T07:51:55.548Z,71.47
2019-06-26T07:52:55.567Z,71.77
2019-06-26T07:53:55.568Z,70.61
2019-06-26T07:54:55.572Z,68.73
2019-06-26T07:55:55.560Z,67.94
2019-06-26T07:56:55.620Z,69.56
2019-06-26T07:57:55.525Z,68.66
2019-06-26T07:58:55.531Z,66.66
2019-06-26T07:59:55.461Z,64.55
2019-06-26T08:00:55.458Z,65.47
2019-06-26T08:01:55.431Z,66.06
2019-06-26T08:02:55.485Z,66.06
2019-06-26T08:03:56.085Z,67.28
2019-06-26T08:04:55.412Z,67.87
2019-06-26T08:05:55.397Z,69.29
2019-06-26T08:06:55.405Z,69.29
2019-06-26T08:07:55.380Z,69.92
2019-06-26T08:08:55.384Z,69.79
2019-06-26T08:09:55.354Z,70.78
2019-06-26T08:10:55.367Z,70.02
2019-06-26T08:11:55.398Z,69.06
2019-06-26T08:12:55.324Z,67.97
2019-06-26T08:13:55.503Z,68.90
2019-06-26T08:14:55.311Z,68.10
2019-06-26T08:15:55.367Z,68.01
2019-06-26T08:16:56.321Z,68.70
2019-06-26T08:18:00.352Z,68.80
2019-06-26T08:18:56.282Z,68.01
2019-06-26T08:19:55.247Z,70.68
2019-06-26T08:21:10.908Z,70.65
2019-06-26T08:21:56.230Z,69.56
2019-06-26T08:22:55.218Z,69.72
2019-06-26T08:23:56.119Z,68.63
2019-06-26T08:24:55.211Z,69.53
2019-06-26T08:25:55.188Z,67.84
2019-06-26T08:26:55.208Z,67.02
2019-06-26T08:27:55.172Z,66.88
2019-06-26T08:28:55.205Z,68.73
2019-06-26T08:29:55.177Z,68.70
2019-06-26T08:30:55.166Z,65.97
2019-06-26T08:31:55.129Z,67.68
2019-06-26T08:32:55.128Z,68.80
2019-06-26T08:33:55.161Z,69.76
2019-06-26T08:34:55.135Z,71.37
2019-06-26T08:35:55.086Z,71.87
2019-06-26T08:36:55.076Z,71.28
2019-06-26T08:38:09.064Z,72.17
2019-06-26T08:38:56.082Z,69.92
2019-06-26T08:39:55.050Z,69.85
2019-06-26T08:40:55.041Z,71.67
2019-06-26T08:41:55.112Z,69.82
2019-06-26T08:42:55.057Z,70.18
2019-06-26T08:43:55.045Z,66.22
2019-06-26T08:44:55.041Z,68.37
2019-06-26T08:45:54.999Z,66.03
2019-06-26T08:46:55.026Z,66.75
2019-06-26T08:47:54.969Z,68.10
2019-06-26T08:48:55.318Z,69.42
2019-06-26T08:49:55.193Z,68.20
2019-06-26T08:50:54.943Z,67.77
2019-06-26T08:51:55.059Z,68.30
2019-06-26T08:52:54.985Z,70.15
2019-06-26T08:53:56.584Z,70.05
2019-06-26T08:54:54.916Z,69.42
2019-06-26T08:55:54.952Z,68.80
2019-06-26T08:56:55.004Z,66.13
2019-06-26T08:57:54.950Z,66.52
2019-06-26T08:58:55.604Z,66.72
2019-06-26T08:59:54.953Z,66.88
2019-06-26T09:00:54.999Z,69.65
2019-06-26T09:01:54.943Z,70.09
2019-06-26T09:02:54.926Z,69.89
2019-06-26T09:03:55.028Z,71.91
2019-06-26T09:04:55.877Z,69.89
2019-06-26T09:05:55.090Z,69.82
2019-06-26T09:06:54.808Z,69.76
2019-06-26T09:07:54.782Z,67.38
2019-06-26T09:08:54.750Z,67.08
2019-06-26T09:09:55.581Z,67.14
2019-06-26T09:10:54.740Z,67.91
2019-06-26T09:11:54.756Z,67.91
2019-06-26T09:12:54.717Z,67.08
2019-06-26T09:13:54.726Z,66.78
2019-06-26T09:14:55.619Z,66.62
2019-06-26T09:15:54.712Z,64.06
2019-06-26T09:16:54.672Z,66.72
2019-06-26T09:17:54.702Z,67.05
2019-06-26T09:18:54.655Z,66.85
2019-06-26T09:19:54.680Z,68.33
2019-06-26T09:20:54.632Z,68.10
2019-06-26T09:21:54.643Z,66.95
2019-06-26T09:22:54.611Z,65.27
2019-06-26T09:23:54.609Z,66.75
2019-06-26T09:24:54.625Z,66.26
2019-06-26T09:25:54.621Z,67.84
2019-06-26T09:26:54.609Z,67.51
2019-06-26T09:27:54.587Z,68.83
2019-06-26T09:28:54.611Z,70.15
2019-06-26T09:29:54.599Z,67.80
2019-06-26T09:30:54.550Z,67.02
2019-06-26T09:31:54.522Z,63.99
2019-06-26T09:32:54.537Z,64.71
2019-06-26T09:33:54.516Z,65.56
2019-06-26T09:34:54.526Z,67.84
2019-06-26T09:35:54.484Z,68.01
2019-06-26T09:36:54.474Z,65.30
2019-06-26T09:37:54.469Z,64.98
2019-06-26T09:38:57.757Z,64.71
2019-06-26T09:39:54.478Z,66.95
2019-06-26T09:40:54.481Z,65.90
2019-06-26T09:41:54.465Z,64.06
2019-06-26T09:42:54.426Z,63.27
2019-06-26T09:43:54.412Z,62.68
2019-06-26T09:44:54.505Z,62.97
2019-06-26T09:45:54.397Z,63.56
2019-06-26T09:46:54.386Z,62.90
2019-06-26T09:47:54.380Z,63.69
2019-06-26T09:48:54.369Z,66.26
2019-06-26T09:49:54.371Z,66.82
2019-06-26T09:50:54.367Z,68.37
2019-06-26T09:51:54.367Z,68.13
2019-06-26T09:52:54.320Z,66.09
2019-06-26T09:53:54.323Z,64.88
2019-06-26T09:54:54.340Z,64.98
2019-06-26T09:55:54.326Z,63.14
2019-06-26T09:56:54.293Z,62.52
2019-06-26T09:57:54.330Z,60.85
2019-06-26T09:58:54.293Z,60.33
2019-06-26T09:59:54.297Z,59.31
2019-06-26T10:00:54.265Z,58.18
2019-06-26T10:01:54.235Z,56.23
2019-06-26T10:02:54.228Z,54.90
2019-06-26T10:03:54.250Z,55.54
2019-06-26T10:04:54.248Z,56.87
2019-06-26T10:05:54.206Z,57.39
2019-06-26T10:06:54.246Z,59.74
2019-06-26T10:07:54.179Z,62.05
2019-06-26T10:08:54.747Z,62.45
2019-06-26T10:09:54.192Z,64.71
2019-06-26T10:10:54.213Z,65.44
2019-06-26T10:11:54.171Z,66.52
2019-06-26T10:12:54.136Z,65.17
2019-06-26T10:13:54.140Z,63.99
2019-06-26T10:14:54.211Z,64.15
2019-06-26T10:15:54.112Z,63.01
2019-06-26T10:16:54.091Z,62.81
2019-06-26T10:17:54.110Z,63.99
2019-06-26T10:19:08.863Z,64.55
2019-06-26T10:19:55.102Z,62.59
2019-06-26T10:20:54.055Z,61.11
2019-06-26T10:21:54.094Z,59.51
2019-06-26T10:22:54.041Z,58.67
2019-06-26T10:23:54.036Z,58.37
2019-06-26T10:24:54.036Z,57.14
2019-06-26T10:25:54.114Z,57.26
2019-06-26T10:26:54.042Z,58.86
2019-06-26T10:27:54.038Z,57.34
2019-06-26T10:28:53.982Z,57.34
2019-06-26T10:29:54.004Z,56.82
2019-06-26T10:30:53.959Z,55.81
2019-06-26T10:31:53.969Z,55.61
2019-06-26T10:32:54.006Z,55.51
2019-06-26T10:33:53.987Z,55.51
2019-06-26T10:34:53.965Z,55.29
2019-06-26T10:35:53.950Z,53.67
2019-06-26T10:36:53.942Z,53.18
2019-06-26T10:37:53.912Z,53.89
2019-06-26T10:38:53.962Z,55.71
2019-06-26T10:39:55.613Z,55.12
2019-06-26T10:40:53.867Z,56.65
2019-06-26T10:41:55.206Z,55.96
2019-06-26T10:42:53.917Z,55.74
2019-06-26T10:43:53.849Z,55.51
2019-06-26T10:44:53.868Z,57.95
2019-06-26T10:45:53.824Z,60.06
2019-06-26T10:46:53.854Z,62.45
2019-06-26T10:47:53.821Z,64.91
2019-06-26T10:48:53.961Z,63.53
2019-06-26T10:49:54.614Z,61.15
2019-06-26T10:50:58.511Z,60.65
2019-06-26T10:51:54.813Z,59.28
2019-06-26T10:52:53.757Z,57.34
2019-06-26T10:53:53.803Z,56.01
2019-06-26T10:54:53.793Z,56.32
2019-06-26T10:55:53.735Z,56.42
2019-06-26T10:56:53.737Z,55.39
2019-06-26T10:57:53.714Z,56.40
2019-06-26T10:58:53.732Z,55.98
2019-06-26T10:59:55.895Z,55.61
2019-06-26T11:00:53.716Z,59.67
2019-06-26T11:01:53.691Z,60.82
2019-06-26T11:02:53.785Z,58.64
2019-06-26T11:03:53.665Z,56.10
2019-06-26T11:04:53.675Z,55.26
2019-06-26T11:05:53.638Z,56.98
2019-06-26T11:06:53.649Z,55.78
2019-06-26T11:07:53.622Z,54.87
2019-06-26T11:08:53.659Z,54.43
2019-06-26T11:09:53.864Z,53.47
2019-06-26T11:10:53.597Z,53.45
2019-06-26T11:11:53.593Z,53.16
2019-06-26T11:12:53.584Z,53.45
2019-06-26T11:13:53.611Z,52.32
2019-06-26T11:14:53.633Z,51.68
2019-06-26T11:15:53.555Z,51.95
2019-06-26T11:16:53.546Z,52.29
2019-06-26T11:17:53.623Z,51.22
2019-06-26T11:18:53.684Z,52.73
2019-06-26T11:19:55.567Z,53.06
2019-06-26T11:20:53.534Z,52.73
2019-06-26T11:21:53.503Z,53.84
2019-06-26T11:22:53.519Z,53.55
2019-06-26T11:23:53.511Z,53.74
2019-06-26T11:24:53.548Z,54.68
2019-06-26T11:25:53.475Z,56.03
2019-06-26T11:26:53.463Z,56.01
2019-06-26T11:27:53.451Z,56.59
2019-06-26T11:28:53.464Z,54.85
2019-06-26T11:29:53.459Z,53.84
2019-06-26T11:30:53.426Z,53.00
2019-06-26T11:31:53.427Z,52.59
2019-06-26T11:32:53.427Z,53.62
2019-06-26T11:33:53.449Z,53.12
2019-06-26T11:34:53.421Z,52.29
2019-06-26T11:35:53.386Z,52.12
2019-06-26T11:37:03.239Z,52.08
2019-06-26T11:37:54.384Z,52.10
2019-06-26T11:38:53.373Z,51.98
2019-06-26T11:39:54.117Z,52.00
2019-06-26T11:40:53.347Z,52.71
2019-06-26T11:41:53.327Z,54.85
2019-06-26T11:42:53.321Z,54.75
2019-06-26T11:43:53.351Z,54.94
2019-06-26T11:44:53.399Z,55.46
2019-06-26T11:45:53.293Z,53.52
2019-06-26T11:46:53.317Z,52.17
2019-06-26T11:47:53.278Z,51.68
2019-06-26T11:48:53.269Z,51.24
2019-06-26T11:49:59.933Z,50.24
2019-06-26T11:50:54.274Z,49.24
2019-06-26T11:51:53.238Z,49.15
2019-06-26T11:52:53.229Z,51.71
2019-06-26T11:53:53.238Z,51.81
2019-06-26T11:55:02.704Z,50.78
2019-06-26T11:55:54.232Z,53.52
2019-06-26T11:56:53.226Z,54.38
2019-06-26T11:57:53.234Z,52.96
2019-06-26T11:58:53.181Z,53.16
2019-06-26T11:59:53.273Z,53.03
2019-06-26T12:00:53.182Z,53.57
2019-06-26T12:01:53.344Z,53.12
2019-06-26T12:02:53.172Z,52.83
2019-06-26T12:03:53.145Z,51.81
2019-06-26T12:04:54.125Z,54.90
2019-06-26T12:05:53.131Z,55.98
2019-06-26T12:06:53.125Z,52.34
2019-06-26T12:07:53.764Z,52.27
2019-06-26T12:08:53.111Z,51.46
2019-06-26T12:09:53.233Z,51.37
2019-06-26T12:10:53.115Z,53.99
2019-06-26T12:11:53.069Z,53.59
2019-06-26T12:12:53.058Z,54.19
2019-06-26T12:13:53.053Z,53.11
2019-06-26T12:14:53.058Z,53.03
2019-06-26T12:15:53.100Z,51.54
2019-06-26T12:16:53.035Z,50.42
2019-06-26T12:17:53.068Z,50.22
2019-06-26T12:18:52.998Z,49.33
2019-06-26T12:19:53.052Z,49.17
2019-06-26T12:20:53.122Z,48.07
2019-06-26T12:21:52.974Z,50.88
2019-06-26T12:22:52.970Z,50.34
2019-06-26T12:23:52.960Z,51.78
2019-06-26T12:24:52.951Z,50.71
2019-06-26T12:25:53.633Z,50.66
2019-06-26T12:26:52.978Z,51.83
2019-06-26T12:27:52.925Z,54.24
2019-06-26T12:28:52.954Z,52.30
2019-06-26T12:29:52.981Z,53.45
2019-06-26T12:30:52.930Z,55.20
2019-06-26T12:31:52.902Z,56.34
2019-06-26T12:33:02.983Z,56.06
2019-06-26T12:33:53.894Z,53.03
2019-06-26T12:34:52.889Z,50.93
2019-06-26T12:35:52.975Z,49.22
2019-06-26T12:36:52.871Z,48.83
2019-06-26T12:37:52.848Z,49.02
2019-06-26T12:38:52.891Z,49.39
2019-06-26T12:39:52.858Z,47.88
2019-06-26T12:40:52.836Z,47.22
2019-06-26T12:41:52.836Z,49.04
2019-06-26T12:42:55.649Z,48.83
2019-06-26T12:43:52.795Z,50.56
2019-06-26T12:44:52.790Z,49.46
2019-06-26T12:45:52.787Z,51.76
2019-06-26T12:46:52.767Z,49.41
2019-06-26T12:47:52.767Z,47.85
2019-06-26T12:48:52.740Z,47.17
2019-06-26T12:49:52.726Z,45.74
2019-06-26T12:50:52.858Z,45.64
2019-06-26T12:51:52.745Z,45.68